createdAt,value
2023-01-05T00:02:04.781Z,9.92
2023-01-05T00:07:07.569Z,9.96
2023-01-05T00:12:28.268Z,9.92
2023-01-05T00:17:50.599Z,9.78
2023-01-05T00:22:54.588Z,9.70
2023-01-05T00:27:58.596Z,9.85
2023-01-05T00:33:02.971Z,9.91
2023-01-05T00:38:08.551Z,9.84
2023-01-05T00:43:11.261Z,9.83
2023-01-05T00:48:15.932Z,9.93
2023-01-05T00:53:18.644Z,9.86
2023-01-05T00:58:21.343Z,10.05
2023-01-05T01:03:25.560Z,10.00
2023-01-05T01:08:28.369Z,9.99
2023-01-05T01:13:31.081Z,9.73
2023-01-05T01:18:35.451Z,9.86
2023-01-05T01:23:38.705Z,9.84
2023-01-05T01:28:41.523Z,9.88
2023-01-05T01:33:45.679Z,9.85
2023-01-05T01:38:48.459Z,9.95
2023-01-05T01:43:52.877Z,9.90
2023-01-05T01:49:01.197Z,9.94
2023-01-05T01:54:06.371Z,9.91
2023-01-05T01:59:09.880Z,9.84
2023-01-05T02:04:14.050Z,9.82
2023-01-05T02:09:17.004Z,9.71
2023-01-05T02:14:28.026Z,9.66
2023-01-05T02:20:00.136Z,9.64
2023-01-05T02:25:39.308Z,9.63
2023-01-05T02:31:09.397Z,9.52
2023-01-05T02:36:24.915Z,9.50
2023-01-05T02:41:35.422Z,9.46
2023-01-05T02:46:40.629Z,9.44
2023-01-05T02:51:46.048Z,9.42
2023-01-05T02:56:51.935Z,9.44
2023-01-05T03:01:59.096Z,9.41
2023-01-05T03:07:03.924Z,9.49
2023-01-05T03:12:29.220Z,9.51
2023-01-05T03:17:36.084Z,9.45
2023-01-05T03:22:57.677Z,9.55
2023-01-05T03:28:19.052Z,9.55
2023-01-05T03:33:48.297Z,9.59
2023-01-05T03:38:52.249Z,9.54
2023-01-05T03:43:55.188Z,9.52
2023-01-05T03:49:00.826Z,9.50
2023-01-05T03:54:04.067Z,9.58
2023-01-05T03:59:09.022Z,9.58
2023-01-05T04:04:15.640Z,9.52
2023-01-05T04:09:18.475Z,9.48
2023-01-05T04:14:22.216Z,9.49
2023-01-05T04:19:26.747Z,9.43
2023-01-05T04:24:31.258Z,9.38
2023-01-05T04:29:36.184Z,9.40
2023-01-05T04:34:40.335Z,9.44
2023-01-05T04:39:44.640Z,9.43
2023-01-05T04:44:48.665Z,9.36
2023-01-05T04:49:52.887Z,9.36
2023-01-05T04:54:57.056Z,9.26
2023-01-05T05:00:00.771Z,9.19
2023-01-05T05:05:07.805Z,9.09
2023-01-05T05:10:11.368Z,9.05
2023-01-05T05:15:17.515Z,9.10
2023-01-05T05:20:24.639Z,9.00
2023-01-05T05:25:29.421Z,9.04
2023-01-05T05:30:32.378Z,9.05
2023-01-05T05:35:36.471Z,9.06
2023-01-05T05:40:39.255Z,9.07
2023-01-05T05:45:47.903Z,9.08
2023-01-05T05:50:54.243Z,9.17
2023-01-05T05:55:57.051Z,9.19
2023-01-05T06:01:00.285Z,9.14
2023-01-05T06:06:04.618Z,9.11
2023-01-05T06:11:08.114Z,9.05
2023-01-05T06:16:11.182Z,9.05
2023-01-05T06:21:15.335Z,9.02
2023-01-05T06:26:18.131Z,8.92
2023-01-05T06:31:21.089Z,8.94
2023-01-05T06:36:25.208Z,8.94
2023-01-05T06:41:27.976Z,8.91
2023-01-05T06:46:30.675Z,8.93
2023-01-05T06:51:34.754Z,8.89
2023-01-05T06:56:37.560Z,8.87
2023-01-05T07:01:40.940Z,8.82
2023-01-05T07:06:45.172Z,8.83
2023-01-05T07:11:47.870Z,8.91
2023-01-05T07:16:50.670Z,9.00
2023-01-05T07:21:56.941Z,8.95
2023-01-05T07:27:02.999Z,8.96
2023-01-05T07:32:08.925Z,8.97
2023-01-05T07:37:13.632Z,9.01
2023-01-05T07:42:16.340Z,9.00
2023-01-05T07:47:19.266Z,9.02
2023-01-05T07:52:23.385Z,9.02
2023-01-05T07:57:26.130Z,9.08
2023-01-05T08:02:35.470Z,9.01
2023-01-05T08:07:39.993Z,8.97
2023-01-05T08:12:56.606Z,8.99
2023-01-05T08:17:59.225Z,9.01
2023-01-05T08:23:03.281Z,9.02
2023-01-05T08:28:06.339Z,9.08
2023-01-05T08:33:09.171Z,9.04
2023-01-05T08:38:13.219Z,9.07
2023-01-05T08:43:15.932Z,9.08
2023-01-05T08:48:18.698Z,9.10
2023-01-05T08:53:22.767Z,9.13
2023-01-05T08:58:25.489Z,9.15
2023-01-05T09:03:28.349Z,9.14
2023-01-05T09:08:33.027Z,9.18
2023-01-05T09:13:35.933Z,9.21
2023-01-05T09:18:39.388Z,9.26
2023-01-05T09:23:43.910Z,9.29
2023-01-05T09:28:46.721Z,9.34
2023-01-05T09:33:49.883Z,9.35
2023-01-05T09:38:56.121Z,9.33
2023-01-05T09:44:00.295Z,9.31
2023-01-05T09:49:06.419Z,9.28
2023-01-05T09:54:16.063Z,9.33
2023-01-05T09:59:23.622Z,9.32
2023-01-05T10:04:30.978Z,9.33
2023-01-05T10:09:39.178Z,9.36
2023-01-05T10:14:44.268Z,9.37
2023-01-05T10:19:47.695Z,9.34
2023-01-05T10:24:56.473Z,9.40
2023-01-05T10:30:05.132Z,9.44
2023-01-05T10:35:50.804Z,9.52
2023-01-05T10:40:59.760Z,9.56
2023-01-05T10:46:32.206Z,9.59
2023-01-05T10:51:25.401Z,9.62
2023-01-05T10:56:30.578Z,9.65
2023-01-05T11:01:33.432Z,9.66
2023-01-05T11:06:37.188Z,9.65
2023-01-05T11:11:41.292Z,9.66
2023-01-05T11:16:48.714Z,9.65
2023-01-05T11:21:55.235Z,9.63
2023-01-05T11:27:03.375Z,9.65
2023-01-05T11:32:07.604Z,9.60
2023-01-05T11:37:23.506Z,9.56
2023-01-05T11:42:32.286Z,9.57
2023-01-05T11:47:43.510Z,9.56
2023-01-05T11:52:48.674Z,9.66
2023-01-05T11:58:00.016Z,9.66
2023-01-05T12:03:23.138Z,9.55
2023-01-05T12:08:29.287Z,9.45
2023-01-05T12:13:49.657Z,9.56
2023-01-05T12:19:21.285Z,9.56
2023-01-05T12:24:36.902Z,9.62
2023-01-05T12:35:40.385Z,9.62
2023-01-05T12:40:54.985Z,9.61
2023-01-05T12:46:15.141Z,9.62
2023-01-05T12:51:20.664Z,9.62
2023-01-05T12:56:28.573Z,9.64
2023-01-05T13:01:35.582Z,9.62
2023-01-05T13:06:41.666Z,9.58
2023-01-05T13:11:48.273Z,9.58
2023-01-05T13:16:58.480Z,9.58
2023-01-05T13:22:03.274Z,9.55
2023-01-05T13:27:05.988Z,9.57
2023-01-05T13:32:22.289Z,9.57
2023-01-05T13:37:53.155Z,9.58
2023-01-05T13:48:44.105Z,9.57
2023-01-05T13:53:54.331Z,9.57
2023-01-05T13:59:00.635Z,9.57
2023-01-05T14:04:04.521Z,9.58
2023-01-05T14:09:09.047Z,9.56
2023-01-05T14:14:26.564Z,9.57
2023-01-05T14:19:58.732Z,9.56
2023-01-05T14:25:34.669Z,9.56
2023-01-05T14:30:37.425Z,9.51
2023-01-05T14:35:41.452Z,9.51
2023-01-05T14:40:46.055Z,9.50
2023-01-05T14:46:00.112Z,9.46
2023-01-05T14:51:19.572Z,9.48
2023-01-05T14:56:25.256Z,9.44
2023-01-05T15:01:30.385Z,9.43
2023-01-05T15:06:48.046Z,9.43
2023-01-05T15:12:02.376Z,9.38
2023-01-05T15:17:48.151Z,9.34
2023-01-05T15:23:01.775Z,9.31
2023-01-05T15:28:31.296Z,9.16
2023-01-05T15:33:38.497Z,9.10
2023-01-05T15:38:47.345Z,8.96
2023-01-05T15:43:50.597Z,8.87
2023-01-05T15:48:54.731Z,8.82
2023-01-05T15:54:00.972Z,8.75
2023-01-05T15:59:05.619Z,8.72
2023-01-05T16:04:09.945Z,8.64
2023-01-05T16:09:25.475Z,8.62
2023-01-05T16:14:31.250Z,8.65
2023-01-05T16:19:37.574Z,8.64
2023-01-05T16:24:43.544Z,8.64
2023-01-05T16:29:48.147Z,8.61
2023-01-05T16:34:51.013Z,8.58
2023-01-05T16:40:02.500Z,8.57
2023-01-05T16:45:08.778Z,8.51
2023-01-05T16:50:44.825Z,8.48
2023-01-05T16:55:48.916Z,8.41
2023-01-05T17:00:51.701Z,8.39
2023-01-05T17:05:54.983Z,8.35
2023-01-05T17:10:59.747Z,8.37
2023-01-05T17:16:03.916Z,8.36
2023-01-05T17:21:07.956Z,8.34
2023-01-05T17:26:13.152Z,8.31
2023-01-05T17:31:15.885Z,8.28
2023-01-05T17:36:18.736Z,8.32
2023-01-05T17:41:22.963Z,8.33
2023-01-05T17:46:28.819Z,8.31
2023-01-05T17:51:31.825Z,8.30
2023-01-05T17:56:35.891Z,8.24
2023-01-05T18:01:38.688Z,8.26
2023-01-05T18:06:41.559Z,8.25
2023-01-05T18:11:45.650Z,8.26
2023-01-05T18:16:48.403Z,8.24
2023-01-05T18:21:51.146Z,8.29
2023-01-05T18:26:55.983Z,8.30
2023-01-05T18:31:58.877Z,8.35
2023-01-05T18:37:05.869Z,8.36
2023-01-05T18:42:14.535Z,8.37
2023-01-05T18:47:17.317Z,8.39
2023-01-05T18:52:20.118Z,8.42
2023-01-05T18:57:24.125Z,8.41
2023-01-05T19:02:27.334Z,8.41
2023-01-05T19:07:30.065Z,8.42
2023-01-05T19:12:34.207Z,8.37
2023-01-05T19:17:36.914Z,8.35
2023-01-05T19:22:41.604Z,8.31
2023-01-05T19:27:46.165Z,8.33
2023-01-05T19:32:48.922Z,8.36
2023-01-05T19:37:51.678Z,8.38
2023-01-05T19:42:56.470Z,8.38
2023-01-05T19:47:59.169Z,8.35
2023-01-05T19:53:01.881Z,8.35
2023-01-05T19:58:05.943Z,8.35
2023-01-05T20:03:08.697Z,8.38
2023-01-05T20:08:11.461Z,8.36
2023-01-05T20:13:15.586Z,8.35
2023-01-05T20:18:18.482Z,8.34
2023-01-05T20:23:21.190Z,8.33
2023-01-05T20:28:25.244Z,8.35
2023-01-05T20:33:28.528Z,8.36
2023-01-05T20:38:32.139Z,8.44
2023-01-05T20:43:36.183Z,8.33
2023-01-05T20:48:38.949Z,8.39
2023-01-05T20:53:42.516Z,8.37
2023-01-05T20:58:47.677Z,8.41
2023-01-05T21:03:50.625Z,8.47
2023-01-05T21:08:53.363Z,8.50
2023-01-05T21:13:58.797Z,8.45
2023-01-05T21:19:03.763Z,8.45
2023-01-05T21:24:08.364Z,8.51
2023-01-05T21:29:13.469Z,8.55
2023-01-05T21:34:16.434Z,8.58
2023-01-05T21:39:21.597Z,8.57
2023-01-05T21:44:25.705Z,8.66
2023-01-05T21:49:28.911Z,8.62
2023-01-05T21:54:49.205Z,8.63
2023-01-05T21:59:54.077Z,8.62
2023-01-05T22:04:56.757Z,8.71
2023-01-05T22:09:59.484Z,8.54
2023-01-05T22:15:04.162Z,8.78
2023-01-05T22:20:07.927Z,8.71
2023-01-05T22:25:10.986Z,8.77
2023-01-05T22:30:15.438Z,8.83
2023-01-05T22:35:18.210Z,8.80
2023-01-05T22:40:20.993Z,8.84
2023-01-05T22:45:25.090Z,8.85
2023-01-05T22:50:27.820Z,8.84
2023-01-05T22:55:30.633Z,8.81
2023-01-05T23:00:34.679Z,8.83
2023-01-05T23:05:39.263Z,8.83
2023-01-05T23:10:41.978Z,8.85
2023-01-05T23:15:46.031Z,8.90
2023-01-05T23:20:53.367Z,8.91
2023-01-05T23:25:56.065Z,8.96
2023-01-05T23:31:00.955Z,8.98
2023-01-05T23:36:04.804Z,8.96
2023-01-05T23:41:09.189Z,8.96
2023-01-05T23:46:16.317Z,8.97
2023-01-05T23:51:19.335Z,8.95
2023-01-05T23:56:24.385Z,8.97
